createdAt,value
2018-12-24T00:01:22.414Z,10.90
2018-12-24T00:03:52.838Z,10.90
2018-12-24T00:06:23.180Z,10.90
2018-12-24T00:08:53.680Z,10.90
2018-12-24T00:11:24.018Z,11.00
2018-12-24T00:13:54.457Z,11.00
2018-12-24T00:16:24.805Z,11.00
2018-12-24T00:18:55.164Z,10.90
2018-12-24T00:21:25.491Z,11.00
2018-12-24T00:23:55.772Z,11.00
2018-12-24T00:26:26.088Z,10.90
2018-12-24T00:28:56.470Z,11.00
2018-12-24T00:31:26.906Z,11.00
2018-12-24T00:33:57.356Z,11.00
2018-12-24T00:36:27.683Z,11.00
2018-12-24T00:38:57.978Z,11.00
2018-12-24T00:41:28.345Z,11.00
2018-12-24T00:43:58.778Z,10.90
2018-12-24T00:46:29.115Z,10.90
2018-12-24T00:48:59.522Z,10.90
2018-12-24T00:51:29.906Z,10.90
2018-12-24T00:54:00.268Z,10.90
2018-12-24T00:56:30.667Z,10.90
2018-12-24T00:59:01.046Z,10.90
2018-12-24T01:01:31.328Z,10.90
2018-12-24T01:04:01.690Z,10.90
2018-12-24T01:06:32.051Z,10.90
2018-12-24T01:09:02.409Z,10.80
2018-12-24T01:11:32.752Z,10.90
2018-12-24T01:14:03.098Z,10.90
2018-12-24T01:16:33.426Z,11.00
2018-12-24T01:19:03.860Z,10.90
2018-12-24T01:21:34.171Z,10.90
2018-12-24T01:24:04.533Z,10.90
2018-12-24T01:26:34.958Z,10.90
2018-12-24T01:29:05.243Z,10.90
2018-12-24T01:31:35.531Z,10.90
2018-12-24T01:34:06.050Z,10.90
2018-12-24T01:36:36.433Z,10.90
2018-12-24T01:39:08.178Z,10.80
2018-12-24T01:41:38.619Z,10.80
2018-12-24T01:44:08.934Z,10.80
2018-12-24T01:46:39.301Z,10.80
2018-12-24T01:49:09.659Z,10.90
2018-12-24T01:51:39.995Z,10.80
2018-12-24T01:54:10.299Z,10.80
2018-12-24T01:56:40.704Z,10.80
2018-12-24T01:59:11.095Z,10.80
2018-12-24T02:01:41.510Z,10.90
2018-12-24T02:04:11.877Z,10.90
2018-12-24T02:06:42.169Z,10.90
2018-12-24T02:09:12.510Z,10.90
2018-12-24T02:11:42.904Z,10.90
2018-12-24T02:14:13.204Z,10.90
2018-12-24T02:16:43.519Z,10.90
2018-12-24T02:19:13.873Z,11.00
2018-12-24T02:21:44.197Z,10.90
2018-12-24T02:24:14.479Z,10.90
2018-12-24T02:26:44.745Z,10.90
2018-12-24T02:29:15.137Z,10.90
2018-12-24T02:31:45.485Z,10.90
2018-12-24T02:34:15.790Z,10.90
2018-12-24T02:36:46.120Z,10.80
2018-12-24T02:39:16.430Z,10.90
2018-12-24T02:41:46.679Z,10.90
2018-12-24T02:44:17.062Z,11.10
2018-12-24T02:46:47.349Z,11.20
2018-12-24T02:49:17.623Z,11.20
2018-12-24T02:51:47.911Z,11.20
2018-12-24T02:54:18.183Z,11.30
2018-12-24T02:56:48.539Z,11.30
2018-12-24T02:59:18.785Z,11.30
2018-12-24T03:01:49.150Z,11.30
2018-12-24T03:04:19.506Z,11.30
2018-12-24T03:06:49.841Z,11.30
2018-12-24T03:09:20.094Z,11.20
2018-12-24T03:11:50.387Z,11.20
2018-12-24T03:14:20.739Z,11.30
2018-12-24T03:16:51.078Z,11.30
2018-12-24T03:19:21.431Z,11.30
2018-12-24T03:21:51.788Z,11.30
2018-12-24T03:24:22.595Z,11.30
2018-12-24T03:26:52.850Z,11.30
2018-12-24T03:29:23.163Z,11.40
2018-12-24T03:31:53.491Z,11.40
2018-12-24T03:34:23.809Z,11.40
2018-12-24T03:36:54.226Z,11.30
2018-12-24T03:39:24.516Z,11.30
2018-12-24T03:41:54.850Z,11.30
2018-12-24T03:44:25.184Z,11.30
2018-12-24T03:46:55.551Z,11.20
2018-12-24T03:49:25.917Z,11.30
2018-12-24T03:51:56.213Z,11.20
2018-12-24T03:54:26.547Z,11.20
2018-12-24T03:56:56.841Z,11.30
2018-12-24T03:59:27.157Z,11.30
2018-12-24T04:01:57.483Z,11.30
2018-12-24T04:04:27.857Z,11.30
2018-12-24T04:06:58.137Z,11.40
2018-12-24T04:09:28.441Z,11.30
2018-12-24T04:11:58.757Z,11.30
2018-12-24T04:14:29.046Z,11.20
2018-12-24T04:16:59.363Z,11.20
2018-12-24T04:19:29.580Z,11.20
2018-12-24T04:21:59.962Z,11.20
2018-12-24T04:24:30.267Z,11.20
2018-12-24T04:27:00.537Z,11.10
2018-12-24T04:29:30.879Z,11.10
2018-12-24T04:32:01.087Z,11.10
2018-12-24T04:34:31.442Z,11.10
2018-12-24T04:37:01.854Z,11.00
2018-12-24T04:39:32.163Z,10.90
2018-12-24T04:42:02.582Z,11.00
2018-12-24T04:44:32.884Z,10.90
2018-12-24T04:47:03.213Z,11.00
2018-12-24T04:49:33.467Z,11.10
2018-12-24T04:52:03.749Z,11.00
2018-12-24T04:54:34.194Z,11.00
2018-12-24T04:57:04.522Z,11.10
2018-12-24T04:59:34.691Z,11.10
2018-12-24T05:02:05.030Z,11.00
2018-12-24T05:04:35.430Z,11.10
2018-12-24T05:07:07.851Z,11.00
2018-12-24T05:09:38.201Z,11.00
2018-12-24T05:12:08.601Z,11.10
2018-12-24T05:14:38.985Z,11.10
2018-12-24T05:17:09.398Z,11.10
2018-12-24T05:19:39.723Z,11.00
2018-12-24T05:22:09.949Z,11.00
2018-12-24T05:24:40.241Z,10.90
2018-12-24T05:27:10.580Z,11.00
2018-12-24T05:29:40.860Z,11.00
2018-12-24T05:32:11.171Z,11.00
2018-12-24T05:34:41.493Z,11.00
2018-12-24T05:37:11.753Z,11.00
2018-12-24T05:39:42.106Z,11.00
2018-12-24T05:42:12.434Z,11.00
2018-12-24T05:44:42.833Z,11.10
2018-12-24T05:47:13.231Z,11.10
2018-12-24T05:49:43.587Z,11.10
2018-12-24T05:52:13.928Z,11.10
2018-12-24T05:54:44.244Z,11.10
2018-12-24T05:57:14.602Z,11.10
2018-12-24T05:59:44.977Z,11.10
2018-12-24T06:02:15.271Z,11.10
2018-12-24T06:04:45.585Z,11.00
2018-12-24T06:07:15.971Z,11.00
2018-12-24T06:09:46.438Z,11.00
2018-12-24T06:12:16.787Z,10.50
2018-12-24T06:14:47.145Z,10.00
2018-12-24T06:17:17.202Z,9.60
2018-12-24T06:19:47.426Z,9.10
2018-12-24T06:22:17.801Z,8.70
2018-12-24T06:24:48.095Z,8.50
2018-12-24T06:27:18.484Z,8.50
2018-12-24T06:29:48.859Z,8.50
2018-12-24T06:32:19.176Z,8.40
2018-12-24T06:34:49.670Z,8.40
2018-12-24T06:37:20.101Z,8.40
2018-12-24T06:39:50.565Z,8.40
2018-12-24T06:42:20.885Z,8.50
2018-12-24T06:44:51.402Z,8.50
2018-12-24T06:47:21.695Z,8.50
2018-12-24T06:49:52.134Z,8.50
2018-12-24T06:52:22.596Z,8.50
2018-12-24T06:54:53.022Z,8.40
2018-12-24T06:57:23.419Z,8.40
2018-12-24T06:59:53.770Z,8.40
2018-12-24T07:02:24.129Z,8.50
2018-12-24T07:04:54.461Z,8.40
2018-12-24T07:07:24.778Z,8.40
2018-12-24T07:09:55.076Z,8.40
2018-12-24T07:12:25.485Z,8.40
2018-12-24T07:14:55.859Z,8.40
2018-12-24T07:17:26.175Z,8.50
2018-12-24T07:19:56.522Z,8.50
2018-12-24T07:22:26.920Z,8.50
2018-12-24T07:24:57.185Z,8.50
2018-12-24T07:27:28.063Z,8.60
2018-12-24T07:29:58.418Z,8.60
2018-12-24T07:32:28.872Z,8.60
2018-12-24T07:34:59.378Z,8.60
2018-12-24T07:37:29.706Z,8.60
2018-12-24T07:40:00.182Z,8.70
2018-12-24T07:42:30.483Z,8.70
2018-12-24T07:45:00.751Z,8.70
2018-12-24T07:47:31.129Z,8.80
2018-12-24T07:50:01.479Z,8.70
2018-12-24T07:52:31.830Z,8.70
2018-12-24T07:55:02.240Z,8.70
2018-12-24T07:57:32.555Z,8.60
2018-12-24T08:00:02.907Z,8.60
2018-12-24T08:02:33.285Z,8.60
2018-12-24T08:05:03.591Z,8.60
2018-12-24T08:07:33.984Z,8.60
2018-12-24T08:10:04.493Z,8.50
2018-12-24T08:12:34.871Z,8.60
2018-12-24T08:15:05.356Z,8.70
2018-12-24T08:17:35.768Z,8.70
2018-12-24T08:20:06.308Z,8.70
2018-12-24T08:22:36.650Z,8.70
2018-12-24T08:25:07.063Z,8.70
2018-12-24T08:27:37.427Z,8.60
2018-12-24T08:30:07.763Z,8.60
2018-12-24T08:32:38.204Z,8.50
2018-12-24T08:35:08.518Z,8.40
2018-12-24T08:37:38.826Z,8.40
2018-12-24T08:40:09.239Z,8.40
2018-12-24T08:42:39.615Z,8.20
2018-12-24T08:45:12.308Z,8.00
2018-12-24T08:47:42.634Z,8.00
2018-12-24T08:50:12.978Z,8.00
2018-12-24T08:52:43.317Z,8.00
2018-12-24T08:55:13.769Z,8.00
2018-12-24T08:57:44.166Z,7.90
2018-12-24T09:00:14.661Z,7.90
2018-12-24T09:02:45.107Z,7.90
2018-12-24T09:05:15.436Z,7.90
2018-12-24T09:07:45.769Z,7.90
2018-12-24T09:10:16.126Z,7.90
2018-12-24T09:12:46.456Z,7.90
2018-12-24T09:15:16.940Z,7.90
2018-12-24T09:17:47.315Z,7.90
2018-12-24T09:20:17.630Z,7.90
2018-12-24T09:22:48.064Z,7.90
2018-12-24T09:25:18.459Z,7.90
2018-12-24T09:27:48.818Z,7.90
2018-12-24T09:30:20.879Z,8.00
2018-12-24T09:32:51.626Z,8.00
2018-12-24T09:35:22.453Z,8.10
2018-12-24T09:37:52.939Z,8.10
2018-12-24T09:40:23.479Z,8.10
2018-12-24T09:42:54.078Z,8.00
2018-12-24T09:45:24.614Z,8.00
2018-12-24T09:47:54.907Z,8.00
2018-12-24T09:50:25.386Z,8.00
2018-12-24T09:52:55.810Z,7.80
2018-12-24T09:55:26.206Z,7.80
2018-12-24T09:57:56.438Z,7.70
2018-12-24T10:00:26.815Z,7.70
2018-12-24T10:03:09.794Z,7.80
2018-12-24T10:05:40.099Z,7.80
2018-12-24T10:08:14.291Z,7.80
2018-12-24T10:10:44.739Z,7.80
2018-12-24T10:13:15.045Z,7.80
2018-12-24T10:15:45.398Z,7.70
2018-12-24T10:18:15.833Z,7.70
2018-12-24T10:20:46.058Z,7.70
2018-12-24T10:23:16.498Z,7.90
2018-12-24T10:25:46.921Z,7.90
2018-12-24T10:28:17.243Z,7.90
2018-12-24T10:30:47.558Z,7.90
2018-12-24T10:33:17.981Z,7.60
2018-12-24T10:35:48.444Z,7.20
2018-12-24T10:38:18.798Z,7.10
2018-12-24T10:40:55.585Z,6.90
2018-12-24T10:43:26.082Z,6.90
2018-12-24T10:46:06.111Z,7.00
2018-12-24T10:48:36.461Z,7.10
2018-12-24T10:51:06.806Z,7.30
2018-12-24T10:53:37.054Z,7.40
2018-12-24T10:56:07.609Z,7.50
2018-12-24T10:59:34.724Z,7.40
2018-12-24T11:02:04.503Z,7.40
2018-12-24T11:04:34.263Z,7.50
2018-12-24T11:07:04.061Z,7.40
2018-12-24T11:09:34.641Z,7.40
2018-12-24T11:12:05.999Z,7.40
2018-12-24T11:14:35.796Z,7.40
2018-12-24T11:17:05.499Z,7.50
2018-12-24T11:19:35.093Z,7.40
2018-12-24T11:22:04.873Z,7.30
2018-12-24T11:24:34.759Z,7.30
2018-12-24T11:27:04.733Z,7.10
2018-12-24T11:29:34.524Z,7.00
2018-12-24T11:32:04.282Z,7.10
2018-12-24T11:34:34.022Z,7.10
2018-12-24T11:37:04.115Z,7.10
2018-12-24T11:39:33.973Z,7.00
2018-12-24T11:42:03.850Z,7.20
2018-12-24T11:44:33.589Z,7.20
2018-12-24T11:47:03.409Z,7.20
2018-12-24T11:49:33.183Z,7.30
2018-12-24T11:52:03.229Z,7.40
2018-12-24T11:54:32.887Z,7.40
2018-12-24T11:57:02.674Z,7.50
2018-12-24T11:59:32.464Z,7.60
2018-12-24T12:02:09.776Z,7.80
2018-12-24T12:04:33.718Z,7.90
2018-12-24T12:07:03.465Z,7.90
2018-12-24T12:09:33.323Z,7.90
2018-12-24T12:12:03.133Z,7.80
2018-12-24T12:14:32.965Z,7.90
2018-12-24T12:17:02.763Z,7.80
2018-12-24T12:19:32.490Z,7.80
2018-12-24T12:22:02.477Z,7.80
2018-12-24T12:24:32.349Z,8.00
2018-12-24T12:27:02.058Z,7.90
2018-12-24T12:29:31.872Z,7.70
2018-12-24T12:32:01.618Z,7.70
2018-12-24T12:34:31.433Z,7.70
2018-12-24T12:37:01.245Z,7.70
2018-12-24T12:39:31.021Z,7.60
2018-12-24T12:42:00.784Z,7.60
2018-12-24T12:44:30.588Z,7.50
2018-12-24T12:47:00.507Z,7.40
2018-12-24T12:49:30.257Z,7.60
2018-12-24T12:52:00.026Z,7.70
2018-12-24T12:54:29.761Z,7.80
2018-12-24T12:56:59.546Z,7.80
2018-12-24T12:59:29.348Z,8.10
2018-12-24T13:01:59.035Z,8.20
2018-12-24T13:04:28.814Z,8.30
2018-12-24T13:06:58.581Z,8.30
2018-12-24T13:09:28.411Z,8.30
2018-12-24T13:11:58.169Z,8.30
2018-12-24T13:14:27.944Z,8.20
2018-12-24T13:16:57.758Z,8.10
2018-12-24T13:19:27.519Z,8.10
2018-12-24T13:22:04.315Z,8.10
2018-12-24T13:24:28.747Z,8.00
2018-12-24T13:26:58.525Z,8.10
2018-12-24T13:29:28.405Z,8.10
2018-12-24T13:31:58.278Z,8.00
2018-12-24T13:34:28.101Z,7.90
2018-12-24T13:36:57.909Z,7.90
2018-12-24T13:39:27.689Z,7.90
2018-12-24T13:41:59.885Z,8.00
2018-12-24T13:44:29.742Z,8.00
2018-12-24T13:46:59.449Z,8.00
2018-12-24T13:49:29.393Z,7.80
2018-12-24T13:51:59.231Z,7.80
2018-12-24T13:54:29.004Z,7.60
2018-12-24T13:56:58.851Z,7.60
2018-12-24T13:59:28.647Z,7.60
2018-12-24T14:01:58.491Z,7.60
2018-12-24T14:04:28.220Z,7.30
2018-12-24T14:06:58.044Z,7.00
2018-12-24T14:09:27.810Z,6.90
2018-12-24T14:11:57.617Z,6.90
2018-12-24T14:14:27.406Z,7.00
2018-12-24T14:16:57.217Z,7.00
2018-12-24T14:19:27.006Z,7.10
2018-12-24T14:21:56.783Z,7.00
2018-12-24T14:24:26.547Z,7.00
2018-12-24T14:26:56.347Z,7.00
2018-12-24T14:29:26.306Z,6.90
2018-12-24T14:31:56.128Z,6.90
2018-12-24T14:34:25.964Z,6.90
2018-12-24T14:36:56.003Z,6.80
2018-12-24T14:39:25.794Z,6.70
2018-12-24T14:41:56.654Z,6.70
2018-12-24T14:44:26.485Z,6.80
2018-12-24T14:46:56.238Z,6.80
2018-12-24T14:49:25.953Z,6.80
2018-12-24T14:51:57.959Z,6.80
2018-12-24T14:54:29.650Z,6.70
2018-12-24T14:56:59.470Z,6.70
2018-12-24T14:59:29.275Z,6.60
2018-12-24T15:02:01.827Z,6.60
2018-12-24T15:04:31.566Z,6.70
2018-12-24T15:07:01.325Z,6.70
2018-12-24T15:09:31.023Z,6.60
2018-12-24T15:12:00.865Z,6.70
2018-12-24T15:14:30.654Z,6.70
2018-12-24T15:17:05.375Z,6.70
2018-12-24T15:19:35.233Z,6.70
2018-12-24T15:22:04.966Z,6.60
2018-12-24T15:24:34.718Z,6.60
2018-12-24T15:27:04.553Z,6.60
2018-12-24T15:29:34.338Z,6.70
2018-12-24T15:32:04.116Z,6.80
2018-12-24T15:34:36.226Z,6.70
2018-12-24T15:37:06.009Z,6.60
2018-12-24T15:39:35.833Z,6.60
2018-12-24T15:42:05.798Z,6.50
2018-12-24T15:44:35.650Z,6.60
2018-12-24T15:47:05.428Z,6.70
2018-12-24T15:49:35.222Z,6.70
2018-12-24T15:52:05.062Z,6.60
2018-12-24T15:54:34.870Z,6.60
2018-12-24T15:57:04.737Z,6.50
2018-12-24T15:59:34.581Z,6.50
2018-12-24T16:02:04.363Z,6.60
2018-12-24T16:04:34.113Z,6.60
2018-12-24T16:07:03.858Z,6.70
2018-12-24T16:09:33.646Z,6.70
2018-12-24T16:12:03.476Z,6.60
2018-12-24T16:14:33.234Z,6.60
2018-12-24T16:17:03.027Z,6.50
2018-12-24T16:19:32.867Z,6.40
2018-12-24T16:22:02.664Z,6.30
2018-12-24T16:24:32.405Z,6.30
2018-12-24T16:27:10.568Z,6.20
2018-12-24T16:29:40.083Z,6.20
2018-12-24T16:32:10.108Z,6.20
2018-12-24T16:34:39.923Z,6.20
2018-12-24T16:37:09.649Z,6.20
2018-12-24T16:39:39.436Z,6.10
2018-12-24T16:42:09.178Z,6.00
2018-12-24T16:44:39.014Z,6.00
2018-12-24T16:47:08.842Z,5.90
2018-12-24T16:49:38.600Z,5.80
2018-12-24T16:52:08.451Z,5.90
2018-12-24T16:54:38.266Z,5.90
2018-12-24T16:57:08.057Z,5.80
2018-12-24T16:59:37.909Z,5.70
2018-12-24T17:02:07.628Z,5.70
2018-12-24T17:04:37.445Z,5.70
2018-12-24T17:07:07.279Z,5.80
2018-12-24T17:09:37.017Z,5.80
2018-12-24T17:12:06.785Z,5.70
2018-12-24T17:14:36.614Z,5.60
2018-12-24T17:17:07.889Z,5.60
2018-12-24T17:19:37.945Z,5.60
2018-12-24T17:22:07.726Z,5.60
2018-12-24T17:24:37.446Z,5.50
2018-12-24T17:27:07.224Z,5.60
2018-12-24T17:29:37.065Z,5.50
2018-12-24T17:32:06.847Z,5.50
2018-12-24T17:34:36.642Z,5.50
2018-12-24T17:37:06.499Z,5.50
2018-12-24T17:39:36.420Z,5.40
2018-12-24T17:42:06.164Z,5.50
2018-12-24T17:44:35.974Z,5.60
2018-12-24T17:47:05.718Z,5.60
2018-12-24T17:49:35.473Z,5.60
2018-12-24T17:52:05.337Z,5.60
2018-12-24T17:54:35.058Z,5.70
2018-12-24T17:57:04.935Z,5.70
2018-12-24T17:59:34.727Z,5.70
2018-12-24T18:02:04.522Z,5.60
2018-12-24T18:04:34.261Z,5.60
2018-12-24T18:07:04.034Z,5.60
2018-12-24T18:09:33.838Z,5.60
2018-12-24T18:12:03.714Z,5.60
2018-12-24T18:14:33.598Z,5.60
2018-12-24T18:17:03.366Z,5.60
2018-12-24T18:19:33.177Z,5.60
2018-12-24T18:22:03.004Z,5.60
2018-12-24T18:24:32.763Z,5.60
2018-12-24T18:27:02.915Z,5.60
2018-12-24T18:29:32.816Z,5.60
2018-12-24T18:32:02.560Z,5.70
2018-12-24T18:34:32.338Z,5.80
2018-12-24T18:37:02.124Z,5.80
2018-12-24T18:39:31.778Z,5.90
2018-12-24T18:42:01.529Z,5.90
2018-12-24T18:44:31.306Z,5.90
2018-12-24T18:47:01.054Z,5.80
2018-12-24T18:49:30.777Z,5.80
2018-12-24T18:52:00.642Z,5.90
2018-12-24T18:54:30.508Z,5.90
2018-12-24T18:57:00.230Z,6.00
2018-12-24T18:59:30.039Z,6.00
2018-12-24T19:01:59.805Z,5.90
2018-12-24T19:04:30.400Z,6.00
2018-12-24T19:07:00.140Z,6.10
2018-12-24T19:09:29.894Z,6.00
2018-12-24T19:11:59.645Z,6.10
2018-12-24T19:14:29.544Z,6.10
2018-12-24T19:16:59.307Z,6.10
2018-12-24T19:19:29.147Z,6.00
2018-12-24T19:21:58.917Z,6.00
2018-12-24T19:24:28.633Z,6.00
2018-12-24T19:26:58.350Z,6.00
2018-12-24T19:29:28.160Z,6.00
2018-12-24T19:31:57.957Z,5.90
2018-12-24T19:34:27.655Z,5.90
2018-12-24T19:36:57.433Z,5.90
2018-12-24T19:39:27.218Z,5.90
2018-12-24T19:41:57.009Z,5.90
2018-12-24T19:44:26.818Z,6.10
2018-12-24T19:46:56.622Z,6.10
2018-12-24T19:49:26.471Z,6.00
2018-12-24T19:51:56.329Z,6.00
2018-12-24T19:54:26.081Z,5.90
2018-12-24T19:56:55.868Z,5.90
2018-12-24T19:59:25.713Z,6.00
2018-12-24T20:01:55.542Z,6.00
2018-12-24T20:04:25.306Z,6.10
2018-12-24T20:06:55.169Z,6.00
2018-12-24T20:09:24.946Z,6.00
2018-12-24T20:11:54.740Z,5.90
2018-12-24T20:14:24.480Z,5.90
2018-12-24T20:16:54.292Z,5.90
2018-12-24T20:19:24.049Z,5.90
2018-12-24T20:21:54.043Z,5.80
2018-12-24T20:24:23.879Z,5.90
2018-12-24T20:26:53.813Z,5.80
2018-12-24T20:29:23.640Z,5.80
2018-12-24T20:31:53.702Z,5.70
2018-12-24T20:34:23.417Z,5.60
2018-12-24T20:36:53.287Z,5.50
2018-12-24T20:39:23.481Z,5.50
2018-12-24T20:41:53.334Z,5.50
2018-12-24T20:44:23.199Z,5.40
2018-12-24T20:46:53.112Z,5.40
2018-12-24T20:49:22.826Z,5.30
2018-12-24T20:51:52.699Z,5.40
2018-12-24T20:54:22.422Z,5.40
2018-12-24T20:56:52.257Z,5.40
2018-12-24T20:59:22.025Z,5.30
2018-12-24T21:01:51.817Z,5.20
2018-12-24T21:04:21.596Z,5.10
2018-12-24T21:06:51.365Z,4.90
2018-12-24T21:09:29.565Z,4.80
2018-12-24T21:12:06.132Z,4.90
2018-12-24T21:14:39.032Z,4.80
2018-12-24T21:17:08.830Z,4.80
2018-12-24T21:19:44.888Z,4.70
2018-12-24T21:22:18.229Z,4.80
2018-12-24T21:24:49.628Z,4.80
2018-12-24T21:27:20.569Z,4.70
2018-12-24T21:29:51.528Z,4.70
2018-12-24T21:32:21.747Z,4.60
2018-12-24T21:34:56.177Z,4.40
2018-12-24T21:37:27.168Z,4.40
2018-12-24T21:39:57.341Z,4.40
2018-12-24T21:42:30.884Z,4.40
2018-12-24T21:45:03.413Z,4.30
2018-12-24T21:47:34.905Z,4.40
2018-12-24T21:50:06.224Z,4.40
2018-12-24T21:52:42.256Z,4.30
2018-12-24T21:55:14.118Z,4.30
2018-12-24T21:57:44.878Z,4.30
2018-12-24T22:00:21.311Z,4.30
2018-12-24T22:02:51.460Z,4.20
2018-12-24T22:05:21.401Z,4.30
2018-12-24T22:07:51.148Z,4.30
2018-12-24T22:10:20.914Z,4.30
2018-12-24T22:12:50.784Z,4.30
2018-12-24T22:15:20.545Z,4.30
2018-12-24T22:17:50.314Z,4.20
2018-12-24T22:20:20.149Z,4.20
2018-12-24T22:22:49.944Z,4.20
2018-12-24T22:25:19.704Z,4.10
2018-12-24T22:27:49.454Z,4.10
2018-12-24T22:30:19.265Z,4.20
2018-12-24T22:32:49.109Z,4.20
2018-12-24T22:35:18.874Z,4.20
2018-12-24T22:37:48.649Z,4.20
2018-12-24T22:40:18.653Z,4.20
2018-12-24T22:42:48.424Z,4.20
2018-12-24T22:45:18.215Z,4.20
2018-12-24T22:47:48.013Z,4.20
2018-12-24T22:50:17.765Z,4.10
2018-12-24T22:52:47.534Z,3.90
2018-12-24T22:55:17.355Z,3.90
2018-12-24T22:57:47.136Z,3.80
2018-12-24T23:00:24.922Z,3.80
2018-12-24T23:02:54.785Z,3.80
2018-12-24T23:05:24.597Z,3.90
2018-12-24T23:07:54.341Z,3.90
2018-12-24T23:10:24.171Z,4.00
2018-12-24T23:12:53.994Z,4.00
2018-12-24T23:15:23.794Z,4.00
2018-12-24T23:17:53.541Z,4.10
2018-12-24T23:20:23.314Z,4.10
2018-12-24T23:22:53.095Z,4.00
2018-12-24T23:25:22.907Z,3.80
2018-12-24T23:27:52.713Z,3.70
2018-12-24T23:30:22.617Z,3.80
2018-12-24T23:32:52.429Z,3.80
2018-12-24T23:35:25.002Z,3.90
2018-12-24T23:37:54.799Z,3.90
2018-12-24T23:40:24.570Z,3.90
2018-12-24T23:42:54.276Z,3.80
2018-12-24T23:45:24.068Z,3.80
2018-12-24T23:47:53.799Z,3.70
2018-12-24T23:50:23.509Z,3.70
2018-12-24T23:52:53.297Z,3.90
2018-12-24T23:55:22.959Z,3.80
2018-12-24T23:57:52.755Z,3.80
